sensor_id;sensor_type;location;lat;lon;timestamp;P1;durP1;ratioP1;P2;durP2;ratioP2
11267;SDS011;49397;47.474;9.416;2022-11-25T00:01:41;2.80;;;2.30;;
11267;SDS011;49397;47.474;9.416;2022-11-25T00:04:06;1.70;;;1.60;;
11267;SDS011;49397;47.474;9.416;2022-11-25T00:06:33;1.97;;;1.87;;
11267;SDS011;49397;47.474;9.416;2022-11-25T00:09:06;2.40;;;2.20;;
11267;SDS011;49397;47.474;9.416;2022-11-25T00:11:35;2.17;;;2.03;;
11267;SDS011;49397;47.474;9.416;2022-11-25T00:14:02;4.33;;;2.43;;
11267;SDS011;49397;47.474;9.416;2022-11-25T00:16:28;2.10;;;2.00;;
11267;SDS011;49397;47.474;9.416;2022-11-25T00:18:54;2.30;;;2.07;;
11267;SDS011;49397;47.474;9.416;2022-11-25T00:21:23;1.90;;;1.80;;
11267;SDS011;49397;47.474;9.416;2022-11-25T00:23:51;2.23;;;1.90;;
11267;SDS011;49397;47.474;9.416;2022-11-25T00:26:21;1.90;;;1.80;;
11267;SDS011;49397;47.474;9.416;2022-11-25T00:28:48;2.60;;;2.43;;
11267;SDS011;49397;47.474;9.416;2022-11-25T00:31:19;2.03;;;1.93;;
11267;SDS011;49397;47.474;9.416;2022-11-25T00:33:48;2.00;;;1.90;;
11267;SDS011;49397;47.474;9.416;2022-11-25T00:38:44;2.10;;;1.80;;
11267;SDS011;49397;47.474;9.416;2022-11-25T00:41:10;2.23;;;2.03;;
11267;SDS011;49397;47.474;9.416;2022-11-25T00:43:55;1.80;;;1.70;;
11267;SDS011;49397;47.474;9.416;2022-11-25T00:46:39;2.80;;;1.93;;
11267;SDS011;49397;47.474;9.416;2022-11-25T00:49:05;2.20;;;2.00;;
11267;SDS011;49397;47.474;9.416;2022-11-25T00:51:31;1.90;;;1.80;;
11267;SDS011;49397;47.474;9.416;2022-11-25T00:53:56;3.67;;;1.80;;
11267;SDS011;49397;47.474;9.416;2022-11-25T00:56:22;2.80;;;1.90;;
11267;SDS011;49397;47.474;9.416;2022-11-25T00:58:47;1.80;;;1.70;;
11267;SDS011;49397;47.474;9.416;2022-11-25T01:01:13;1.97;;;1.87;;
11267;SDS011;49397;47.474;9.416;2022-11-25T01:03:39;1.70;;;1.60;;
11267;SDS011;49397;47.474;9.416;2022-11-25T01:06:06;1.80;;;1.70;;
11267;SDS011;49397;47.474;9.416;2022-11-25T01:08:34;2.20;;;2.00;;
11267;SDS011;49397;47.474;9.416;2022-11-25T01:11:01;1.90;;;1.80;;
11267;SDS011;49397;47.474;9.416;2022-11-25T01:13:29;1.97;;;1.87;;
11267;SDS011;49397;47.474;9.416;2022-11-25T01:15:55;2.10;;;1.97;;
11267;SDS011;49397;47.474;9.416;2022-11-25T01:18:20;2.67;;;2.13;;
11267;SDS011;49397;47.474;9.416;2022-11-25T01:20:46;1.80;;;1.67;;
11267;SDS011;49397;47.474;9.416;2022-11-25T01:23:11;2.20;;;1.93;;
11267;SDS011;49397;47.474;9.416;2022-11-25T01:25:37;1.97;;;1.80;;
11267;SDS011;49397;47.474;9.416;2022-11-25T01:28:04;2.00;;;1.90;;
11267;SDS011;49397;47.474;9.416;2022-11-25T01:30:30;1.80;;;1.70;;
11267;SDS011;49397;47.474;9.416;2022-11-25T01:32:55;4.43;;;2.20;;
11267;SDS011;49397;47.474;9.416;2022-11-25T01:35:21;1.60;;;1.60;;
11267;SDS011;49397;47.474;9.416;2022-11-25T01:37:46;2.00;;;1.90;;
11267;SDS011;49397;47.474;9.416;2022-11-25T01:40:12;1.77;;;1.67;;
11267;SDS011;49397;47.474;9.416;2022-11-25T01:42:41;2.23;;;1.70;;
11267;SDS011;49397;47.474;9.416;2022-11-25T01:47:53;2.20;;;2.00;;
11267;SDS011;49397;47.474;9.416;2022-11-25T01:50:24;1.70;;;1.60;;
11267;SDS011;49397;47.474;9.416;2022-11-25T01:52:52;1.70;;;1.60;;
11267;SDS011;49397;47.474;9.416;2022-11-25T01:55:22;2.03;;;1.93;;
11267;SDS011;49397;47.474;9.416;2022-11-25T01:58:12;2.00;;;1.80;;
11267;SDS011;49397;47.474;9.416;2022-11-25T02:00:43;1.50;;;1.40;;
11267;SDS011;49397;47.474;9.416;2022-11-25T02:03:17;2.03;;;1.93;;
11267;SDS011;49397;47.474;9.416;2022-11-25T02:08:27;2.83;;;1.90;;
11267;SDS011;49397;47.474;9.416;2022-11-25T02:10:54;1.77;;;1.67;;
11267;SDS011;49397;47.474;9.416;2022-11-25T02:13:21;1.70;;;1.60;;
11267;SDS011;49397;47.474;9.416;2022-11-25T02:15:48;2.00;;;1.90;;
11267;SDS011;49397;47.474;9.416;2022-11-25T02:18:14;1.83;;;1.73;;
11267;SDS011;49397;47.474;9.416;2022-11-25T02:20:40;2.10;;;2.00;;
11267;SDS011;49397;47.474;9.416;2022-11-25T02:25:50;1.83;;;1.70;;
11267;SDS011;49397;47.474;9.416;2022-11-25T02:28:19;2.77;;;1.57;;
11267;SDS011;49397;47.474;9.416;2022-11-25T02:30:47;1.97;;;1.87;;
11267;SDS011;49397;47.474;9.416;2022-11-25T02:33:14;1.90;;;1.80;;
11267;SDS011;49397;47.474;9.416;2022-11-25T02:38:34;1.53;;;1.43;;
11267;SDS011;49397;47.474;9.416;2022-11-25T02:41:04;2.07;;;1.93;;
11267;SDS011;49397;47.474;9.416;2022-11-25T02:43:31;1.90;;;1.80;;
11267;SDS011;49397;47.474;9.416;2022-11-25T02:45:58;1.80;;;1.70;;
11267;SDS011;49397;47.474;9.416;2022-11-25T02:48:36;1.60;;;1.50;;
11267;SDS011;49397;47.474;9.416;2022-11-25T02:51:03;2.70;;;1.67;;
11267;SDS011;49397;47.474;9.416;2022-11-25T02:53:29;1.70;;;1.70;;
11267;SDS011;49397;47.474;9.416;2022-11-25T02:55:55;1.63;;;1.63;;
11267;SDS011;49397;47.474;9.416;2022-11-25T02:58:21;1.60;;;1.60;;
11267;SDS011;49397;47.474;9.416;2022-11-25T03:00:47;2.07;;;1.70;;
11267;SDS011;49397;47.474;9.416;2022-11-25T03:03:13;1.67;;;1.57;;
11267;SDS011;49397;47.474;9.416;2022-11-25T03:05:39;1.43;;;1.43;;
11267;SDS011;49397;47.474;9.416;2022-11-25T03:08:05;1.90;;;1.80;;
11267;SDS011;49397;47.474;9.416;2022-11-25T03:10:30;1.73;;;1.73;;
11267;SDS011;49397;47.474;9.416;2022-11-25T03:12:56;3.30;;;3.03;;
11267;SDS011;49397;47.474;9.416;2022-11-25T03:15:22;2.97;;;2.73;;
11267;SDS011;49397;47.474;9.416;2022-11-25T03:17:48;3.00;;;2.73;;
11267;SDS011;49397;47.474;9.416;2022-11-25T03:20:14;4.27;;;2.90;;
11267;SDS011;49397;47.474;9.416;2022-11-25T03:22:40;3.37;;;3.00;;
11267;SDS011;49397;47.474;9.416;2022-11-25T03:25:06;3.43;;;2.83;;
11267;SDS011;49397;47.474;9.416;2022-11-25T03:27:33;4.27;;;3.23;;
11267;SDS011;49397;47.474;9.416;2022-11-25T03:29:59;4.43;;;3.17;;
11267;SDS011;49397;47.474;9.416;2022-11-25T03:32:25;4.00;;;3.60;;
11267;SDS011;49397;47.474;9.416;2022-11-25T03:34:50;3.50;;;3.20;;
11267;SDS011;49397;47.474;9.416;2022-11-25T03:37:16;4.60;;;2.93;;
11267;SDS011;49397;47.474;9.416;2022-11-25T03:39:42;2.87;;;2.67;;
11267;SDS011;49397;47.474;9.416;2022-11-25T03:42:07;3.20;;;2.90;;
11267;SDS011;49397;47.474;9.416;2022-11-25T03:44:33;3.87;;;3.53;;
11267;SDS011;49397;47.474;9.416;2022-11-25T03:46:58;3.53;;;3.20;;
11267;SDS011;49397;47.474;9.416;2022-11-25T03:49:24;3.07;;;2.80;;
11267;SDS011;49397;47.474;9.416;2022-11-25T03:51:49;2.80;;;2.60;;
11267;SDS011;49397;47.474;9.416;2022-11-25T03:54:15;1.90;;;1.80;;
11267;SDS011;49397;47.474;9.416;2022-11-25T03:56:40;2.10;;;2.00;;
11267;SDS011;49397;47.474;9.416;2022-11-25T03:59:06;2.10;;;1.93;;
11267;SDS011;49397;47.474;9.416;2022-11-25T04:01:31;4.87;;;2.00;;
11267;SDS011;49397;47.474;9.416;2022-11-25T04:03:57;2.03;;;1.93;;
11267;SDS011;49397;47.474;9.416;2022-11-25T04:06:22;5.00;;;2.47;;
11267;SDS011;49397;47.474;9.416;2022-11-25T04:08:48;2.67;;;2.47;;
11267;SDS011;49397;47.474;9.416;2022-11-25T04:11:14;6.83;;;2.70;;
11267;SDS011;49397;47.474;9.416;2022-11-25T04:13:40;2.70;;;2.50;;
11267;SDS011;49397;47.474;9.416;2022-11-25T04:16:05;3.57;;;2.43;;
11267;SDS011;49397;47.474;9.416;2022-11-25T04:18:31;1.80;;;1.70;;
11267;SDS011;49397;47.474;9.416;2022-11-25T04:20:56;2.43;;;2.23;;
11267;SDS011;49397;47.474;9.416;2022-11-25T04:23:22;1.80;;;1.70;;
11267;SDS011;49397;47.474;9.416;2022-11-25T04:25:48;1.83;;;1.70;;
11267;SDS011;49397;47.474;9.416;2022-11-25T04:28:15;1.80;;;1.70;;
11267;SDS011;49397;47.474;9.416;2022-11-25T04:30:40;1.50;;;1.50;;
11267;SDS011;49397;47.474;9.416;2022-11-25T04:33:06;2.07;;;1.97;;
11267;SDS011;49397;47.474;9.416;2022-11-25T04:35:31;1.80;;;1.70;;
11267;SDS011;49397;47.474;9.416;2022-11-25T04:37:57;1.63;;;1.53;;
11267;SDS011;49397;47.474;9.416;2022-11-25T04:40:22;1.60;;;1.50;;
11267;SDS011;49397;47.474;9.416;2022-11-25T04:42:48;2.87;;;1.60;;
11267;SDS011;49397;47.474;9.416;2022-11-25T04:45:15;4.40;;;1.50;;
11267;SDS011;49397;47.474;9.416;2022-11-25T04:47:42;1.57;;;1.47;;
11267;SDS011;49397;47.474;9.416;2022-11-25T04:50:11;1.70;;;1.60;;
11267;SDS011;49397;47.474;9.416;2022-11-25T04:52:42;1.90;;;1.80;;
11267;SDS011;49397;47.474;9.416;2022-11-25T04:55:08;2.07;;;1.97;;
11267;SDS011;49397;47.474;9.416;2022-11-25T04:57:34;1.83;;;1.73;;
11267;SDS011;49397;47.474;9.416;2022-11-25T05:00:00;1.37;;;1.37;;
11267;SDS011;49397;47.474;9.416;2022-11-25T05:02:26;2.43;;;1.80;;
11267;SDS011;49397;47.474;9.416;2022-11-25T05:04:53;3.73;;;1.60;;
11267;SDS011;49397;47.474;9.416;2022-11-25T05:07:21;1.50;;;1.40;;
11267;SDS011;49397;47.474;9.416;2022-11-25T05:09:47;1.93;;;1.70;;
11267;SDS011;49397;47.474;9.416;2022-11-25T05:12:16;2.67;;;1.70;;
11267;SDS011;49397;47.474;9.416;2022-11-25T05:14:46;2.37;;;1.90;;
11267;SDS011;49397;47.474;9.416;2022-11-25T05:17:13;2.30;;;1.80;;
11267;SDS011;49397;47.474;9.416;2022-11-25T05:19:41;2.53;;;2.33;;
11267;SDS011;49397;47.474;9.416;2022-11-25T05:22:14;2.57;;;2.17;;
11267;SDS011;49397;47.474;9.416;2022-11-25T05:24:41;3.33;;;2.57;;
11267;SDS011;49397;47.474;9.416;2022-11-25T05:27:07;4.10;;;2.53;;
11267;SDS011;49397;47.474;9.416;2022-11-25T05:29:33;2.70;;;2.47;;
11267;SDS011;49397;47.474;9.416;2022-11-25T05:31:59;2.60;;;2.40;;
11267;SDS011;49397;47.474;9.416;2022-11-25T05:34:24;2.30;;;2.20;;
11267;SDS011;49397;47.474;9.416;2022-11-25T05:36:50;2.37;;;2.07;;
11267;SDS011;49397;47.474;9.416;2022-11-25T05:39:16;2.03;;;1.93;;
11267;SDS011;49397;47.474;9.416;2022-11-25T05:41:42;2.40;;;2.20;;
11267;SDS011;49397;47.474;9.416;2022-11-25T05:44:08;3.20;;;2.90;;
11267;SDS011;49397;47.474;9.416;2022-11-25T05:46:33;3.17;;;2.57;;
11267;SDS011;49397;47.474;9.416;2022-11-25T05:48:59;3.33;;;2.77;;
11267;SDS011;49397;47.474;9.416;2022-11-25T05:51:25;7.00;;;2.40;;
11267;SDS011;49397;47.474;9.416;2022-11-25T05:53:52;2.10;;;2.00;;
11267;SDS011;49397;47.474;9.416;2022-11-25T05:56:18;2.60;;;2.40;;
11267;SDS011;49397;47.474;9.416;2022-11-25T05:58:43;1.80;;;1.70;;
11267;SDS011;49397;47.474;9.416;2022-11-25T06:01:09;7.10;;;2.30;;
11267;SDS011;49397;47.474;9.416;2022-11-25T06:03:36;2.53;;;2.27;;
11267;SDS011;49397;47.474;9.416;2022-11-25T06:06:02;2.77;;;2.53;;
11267;SDS011;49397;47.474;9.416;2022-11-25T06:08:29;2.73;;;2.23;;
11267;SDS011;49397;47.474;9.416;2022-11-25T06:10:54;2.27;;;2.10;;
11267;SDS011;49397;47.474;9.416;2022-11-25T06:13:20;3.47;;;2.30;;
11267;SDS011;49397;47.474;9.416;2022-11-25T06:15:46;3.60;;;2.40;;
11267;SDS011;49397;47.474;9.416;2022-11-25T06:18:13;2.43;;;2.23;;
11267;SDS011;49397;47.474;9.416;2022-11-25T06:20:41;2.57;;;2.23;;
11267;SDS011;49397;47.474;9.416;2022-11-25T06:23:07;2.13;;;1.93;;
11267;SDS011;49397;47.474;9.416;2022-11-25T06:25:34;2.27;;;2.03;;
11267;SDS011;49397;47.474;9.416;2022-11-25T06:28:00;4.17;;;2.33;;
11267;SDS011;49397;47.474;9.416;2022-11-25T06:30:27;4.37;;;2.00;;
11267;SDS011;49397;47.474;9.416;2022-11-25T06:32:53;3.67;;;2.10;;
11267;SDS011;49397;47.474;9.416;2022-11-25T06:35:20;5.27;;;2.10;;
11267;SDS011;49397;47.474;9.416;2022-11-25T06:37:45;4.93;;;1.97;;
11267;SDS011;49397;47.474;9.416;2022-11-25T06:40:11;2.23;;;1.90;;
11267;SDS011;49397;47.474;9.416;2022-11-25T06:42:37;4.63;;;2.23;;
11267;SDS011;49397;47.474;9.416;2022-11-25T06:45:03;2.37;;;2.17;;
11267;SDS011;49397;47.474;9.416;2022-11-25T06:47:29;2.40;;;2.20;;
11267;SDS011;49397;47.474;9.416;2022-11-25T06:49:55;4.60;;;2.43;;
11267;SDS011;49397;47.474;9.416;2022-11-25T06:52:20;2.73;;;2.20;;
11267;SDS011;49397;47.474;9.416;2022-11-25T06:54:46;5.27;;;2.27;;
11267;SDS011;49397;47.474;9.416;2022-11-25T06:57:11;3.97;;;2.40;;
11267;SDS011;49397;47.474;9.416;2022-11-25T06:59:41;5.80;;;3.33;;
11267;SDS011;49397;47.474;9.416;2022-11-25T07:02:08;6.17;;;3.23;;
11267;SDS011;49397;47.474;9.416;2022-11-25T07:04:36;3.07;;;2.53;;
11267;SDS011;49397;47.474;9.416;2022-11-25T07:07:01;3.40;;;3.00;;
11267;SDS011;49397;47.474;9.416;2022-11-25T07:09:28;2.00;;;1.90;;
11267;SDS011;49397;47.474;9.416;2022-11-25T07:11:53;3.43;;;2.40;;
11267;SDS011;49397;47.474;9.416;2022-11-25T07:14:19;3.50;;;2.60;;
11267;SDS011;49397;47.474;9.416;2022-11-25T07:16:45;3.07;;;2.67;;
11267;SDS011;49397;47.474;9.416;2022-11-25T07:19:11;4.70;;;3.07;;
11267;SDS011;49397;47.474;9.416;2022-11-25T07:21:39;2.80;;;2.60;;
11267;SDS011;49397;47.474;9.416;2022-11-25T07:24:06;5.97;;;2.97;;
11267;SDS011;49397;47.474;9.416;2022-11-25T07:26:33;5.10;;;3.30;;
11267;SDS011;49397;47.474;9.416;2022-11-25T07:29:03;4.27;;;2.27;;
11267;SDS011;49397;47.474;9.416;2022-11-25T07:31:34;4.77;;;3.20;;
11267;SDS011;49397;47.474;9.416;2022-11-25T07:34:03;7.80;;;3.77;;
11267;SDS011;49397;47.474;9.416;2022-11-25T07:36:35;7.80;;;3.67;;
11267;SDS011;49397;47.474;9.416;2022-11-25T07:39:03;11.20;;;5.20;;
11267;SDS011;49397;47.474;9.416;2022-11-25T07:41:30;9.33;;;4.83;;
11267;SDS011;49397;47.474;9.416;2022-11-25T07:43:57;12.60;;;4.57;;
11267;SDS011;49397;47.474;9.416;2022-11-25T07:48:50;10.07;;;4.90;;
11267;SDS011;49397;47.474;9.416;2022-11-25T07:51:18;15.13;;;6.20;;
11267;SDS011;49397;47.474;9.416;2022-11-25T07:53:49;15.93;;;6.03;;
11267;SDS011;49397;47.474;9.416;2022-11-25T07:56:15;12.00;;;4.60;;
11267;SDS011;49397;47.474;9.416;2022-11-25T07:58:42;9.63;;;4.50;;
11267;SDS011;49397;47.474;9.416;2022-11-25T08:01:09;8.00;;;4.40;;
11267;SDS011;49397;47.474;9.416;2022-11-25T08:03:36;8.43;;;5.07;;
11267;SDS011;49397;47.474;9.416;2022-11-25T08:06:04;10.67;;;4.10;;
11267;SDS011;49397;47.474;9.416;2022-11-25T08:08:37;7.17;;;4.20;;
11267;SDS011;49397;47.474;9.416;2022-11-25T08:11:07;5.83;;;4.00;;
11267;SDS011;49397;47.474;9.416;2022-11-25T08:13:37;6.67;;;3.37;;
11267;SDS011;49397;47.474;9.416;2022-11-25T08:16:03;4.87;;;3.43;;
11267;SDS011;49397;47.474;9.416;2022-11-25T08:18:29;4.77;;;3.20;;
11267;SDS011;49397;47.474;9.416;2022-11-25T08:21:02;3.93;;;3.27;;
11267;SDS011;49397;47.474;9.416;2022-11-25T08:23:32;3.63;;;3.13;;
11267;SDS011;49397;47.474;9.416;2022-11-25T08:26:03;3.47;;;2.73;;
11267;SDS011;49397;47.474;9.416;2022-11-25T08:28:33;3.30;;;2.73;;
11267;SDS011;49397;47.474;9.416;2022-11-25T08:31:03;4.60;;;3.43;;
11267;SDS011;49397;47.474;9.416;2022-11-25T08:33:33;5.57;;;3.20;;
11267;SDS011;49397;47.474;9.416;2022-11-25T08:35:59;3.63;;;3.30;;
11267;SDS011;49397;47.474;9.416;2022-11-25T08:38:24;6.00;;;4.63;;
11267;SDS011;49397;47.474;9.416;2022-11-25T08:40:50;7.90;;;4.77;;
11267;SDS011;49397;47.474;9.416;2022-11-25T08:43:17;11.80;;;4.67;;
11267;SDS011;49397;47.474;9.416;2022-11-25T08:45:44;7.23;;;4.33;;
11267;SDS011;49397;47.474;9.416;2022-11-25T08:48:09;4.27;;;3.33;;
11267;SDS011;49397;47.474;9.416;2022-11-25T08:50:35;4.50;;;3.20;;
11267;SDS011;49397;47.474;9.416;2022-11-25T08:53:00;3.67;;;3.30;;
11267;SDS011;49397;47.474;9.416;2022-11-25T08:55:26;4.67;;;3.50;;
11267;SDS011;49397;47.474;9.416;2022-11-25T08:57:53;3.53;;;3.23;;
11267;SDS011;49397;47.474;9.416;2022-11-25T09:00:19;3.83;;;3.43;;
11267;SDS011;49397;47.474;9.416;2022-11-25T09:02:46;6.90;;;3.17;;
11267;SDS011;49397;47.474;9.416;2022-11-25T09:05:13;4.73;;;3.03;;
11267;SDS011;49397;47.474;9.416;2022-11-25T09:07:41;3.80;;;3.00;;
11267;SDS011;49397;47.474;9.416;2022-11-25T09:10:08;2.93;;;2.57;;
11267;SDS011;49397;47.474;9.416;2022-11-25T09:12:37;3.00;;;2.70;;
11267;SDS011;49397;47.474;9.416;2022-11-25T09:15:03;4.73;;;2.83;;
11267;SDS011;49397;47.474;9.416;2022-11-25T09:17:29;4.23;;;2.40;;
11267;SDS011;49397;47.474;9.416;2022-11-25T09:19:55;2.53;;;2.40;;
11267;SDS011;49397;47.474;9.416;2022-11-25T09:22:21;5.37;;;2.97;;
11267;SDS011;49397;47.474;9.416;2022-11-25T09:24:46;2.50;;;2.33;;
11267;SDS011;49397;47.474;9.416;2022-11-25T09:27:12;2.60;;;2.40;;
11267;SDS011;49397;47.474;9.416;2022-11-25T09:29:37;5.43;;;2.60;;
11267;SDS011;49397;47.474;9.416;2022-11-25T09:32:03;3.27;;;2.50;;
11267;SDS011;49397;47.474;9.416;2022-11-25T09:34:28;3.67;;;2.87;;
11267;SDS011;49397;47.474;9.416;2022-11-25T09:36:54;3.77;;;2.50;;
11267;SDS011;49397;47.474;9.416;2022-11-25T09:39:19;4.00;;;3.07;;
11267;SDS011;49397;47.474;9.416;2022-11-25T09:44:57;5.53;;;3.30;;
11267;SDS011;49397;47.474;9.416;2022-11-25T09:53:05;3.10;;;2.73;;
11267;SDS011;49397;47.474;9.416;2022-11-25T09:55:50;5.10;;;3.20;;
11267;SDS011;49397;47.474;9.416;2022-11-25T09:58:29;6.77;;;3.40;;
11267;SDS011;49397;47.474;9.416;2022-11-25T10:00:59;4.20;;;2.90;;
11267;SDS011;49397;47.474;9.416;2022-11-25T10:08:49;5.40;;;3.67;;
11267;SDS011;49397;47.474;9.416;2022-11-25T10:21:50;6.07;;;3.90;;
11267;SDS011;49397;47.474;9.416;2022-11-25T10:24:16;5.50;;;3.47;;
11267;SDS011;49397;47.474;9.416;2022-11-25T10:26:47;5.97;;;4.17;;
11267;SDS011;49397;47.474;9.416;2022-11-25T10:29:21;6.97;;;4.43;;
11267;SDS011;49397;47.474;9.416;2022-11-25T10:31:49;4.93;;;3.67;;
11267;SDS011;49397;47.474;9.416;2022-11-25T10:34:28;5.57;;;4.53;;
11267;SDS011;49397;47.474;9.416;2022-11-25T10:36:59;4.57;;;4.13;;
11267;SDS011;49397;47.474;9.416;2022-11-25T10:39:30;5.47;;;3.50;;
11267;SDS011;49397;47.474;9.416;2022-11-25T10:42:01;5.80;;;3.90;;
11267;SDS011;49397;47.474;9.416;2022-11-25T10:44:33;4.90;;;3.93;;
11267;SDS011;49397;47.474;9.416;2022-11-25T10:52:12;5.77;;;4.77;;
11267;SDS011;49397;47.474;9.416;2022-11-25T10:54:38;6.30;;;4.40;;
11267;SDS011;49397;47.474;9.416;2022-11-25T10:57:19;6.20;;;5.23;;
11267;SDS011;49397;47.474;9.416;2022-11-25T10:59:57;6.70;;;4.87;;
11267;SDS011;49397;47.474;9.416;2022-11-25T11:02:26;9.63;;;7.13;;
11267;SDS011;49397;47.474;9.416;2022-11-25T11:04:54;10.07;;;7.10;;
11267;SDS011;49397;47.474;9.416;2022-11-25T11:07:44;12.23;;;7.40;;
11267;SDS011;49397;47.474;9.416;2022-11-25T11:12:41;13.27;;;7.17;;
11267;SDS011;49397;47.474;9.416;2022-11-25T11:20:58;6.93;;;5.93;;
11267;SDS011;49397;47.474;9.416;2022-11-25T11:23:25;7.73;;;5.97;;
11267;SDS011;49397;47.474;9.416;2022-11-25T11:25:57;8.13;;;6.10;;
11267;SDS011;49397;47.474;9.416;2022-11-25T11:28:26;6.53;;;5.83;;
11267;SDS011;49397;47.474;9.416;2022-11-25T11:31:16;6.77;;;5.90;;
11267;SDS011;49397;47.474;9.416;2022-11-25T11:46:53;8.37;;;5.93;;
11267;SDS011;49397;47.474;9.416;2022-11-25T11:55:42;6.23;;;5.70;;
11267;SDS011;49397;47.474;9.416;2022-11-25T11:58:28;6.10;;;4.93;;
11267;SDS011;49397;47.474;9.416;2022-11-25T12:07:12;8.67;;;6.17;;
11267;SDS011;49397;47.474;9.416;2022-11-25T12:09:52;7.00;;;5.57;;
11267;SDS011;49397;47.474;9.416;2022-11-25T12:12:31;6.80;;;5.87;;
11267;SDS011;49397;47.474;9.416;2022-11-25T12:15:03;6.50;;;5.73;;
11267;SDS011;49397;47.474;9.416;2022-11-25T12:17:41;5.13;;;4.63;;
11267;SDS011;49397;47.474;9.416;2022-11-25T12:20:16;14.30;;;5.60;;
11267;SDS011;49397;47.474;9.416;2022-11-25T12:22:52;8.13;;;6.00;;
11267;SDS011;49397;47.474;9.416;2022-11-25T12:25:41;9.10;;;5.73;;
11267;SDS011;49397;47.474;9.416;2022-11-25T12:28:11;8.23;;;5.40;;
11267;SDS011;49397;47.474;9.416;2022-11-25T12:33:34;5.83;;;4.50;;
11267;SDS011;49397;47.474;9.416;2022-11-25T12:36:12;5.20;;;4.70;;
11267;SDS011;49397;47.474;9.416;2022-11-25T12:38:45;6.20;;;5.17;;
11267;SDS011;49397;47.474;9.416;2022-11-25T12:44:00;7.13;;;4.93;;
11267;SDS011;49397;47.474;9.416;2022-11-25T12:49:34;7.97;;;4.67;;
11267;SDS011;49397;47.474;9.416;2022-11-25T13:00:21;6.50;;;5.17;;
11267;SDS011;49397;47.474;9.416;2022-11-25T13:03:15;10.60;;;4.73;;
11267;SDS011;49397;47.474;9.416;2022-11-25T13:17:02;5.03;;;4.33;;
11267;SDS011;49397;47.474;9.416;2022-11-25T13:19:28;4.90;;;4.50;;
11267;SDS011;49397;47.474;9.416;2022-11-25T13:22:03;8.13;;;5.07;;
11267;SDS011;49397;47.474;9.416;2022-11-25T13:26:59;6.27;;;5.63;;
11267;SDS011;49397;47.474;9.416;2022-11-25T13:32:03;7.87;;;5.37;;
11267;SDS011;49397;47.474;9.416;2022-11-25T13:35:28;7.37;;;5.47;;
11267;SDS011;49397;47.474;9.416;2022-11-25T13:37:46;9.13;;;5.93;;
11267;SDS011;49397;47.474;9.416;2022-11-25T13:42:48;12.37;;;6.90;;
11267;SDS011;49397;47.474;9.416;2022-11-25T13:45:57;8.50;;;6.10;;
11267;SDS011;49397;47.474;9.416;2022-11-25T13:48:12;8.63;;;6.43;;
11267;SDS011;49397;47.474;9.416;2022-11-25T13:50:43;12.83;;;6.10;;
11267;SDS011;49397;47.474;9.416;2022-11-25T13:53:17;8.03;;;5.70;;
11267;SDS011;49397;47.474;9.416;2022-11-25T13:55:47;7.03;;;5.23;;
11267;SDS011;49397;47.474;9.416;2022-11-25T13:58:25;6.60;;;5.83;;
11267;SDS011;49397;47.474;9.416;2022-11-25T14:08:38;9.50;;;5.73;;
11267;SDS011;49397;47.474;9.416;2022-11-25T14:24:59;7.47;;;5.77;;
11267;SDS011;49397;47.474;9.416;2022-11-25T14:27:38;8.63;;;6.63;;
11267;SDS011;49397;47.474;9.416;2022-11-25T14:30:10;5.67;;;4.87;;
11267;SDS011;49397;47.474;9.416;2022-11-25T14:32:58;6.27;;;3.93;;
11267;SDS011;49397;47.474;9.416;2022-11-25T14:35:36;5.27;;;3.30;;
11267;SDS011;49397;47.474;9.416;2022-11-25T14:38:11;6.80;;;2.97;;
11267;SDS011;49397;47.474;9.416;2022-11-25T14:40:41;3.93;;;2.90;;
11267;SDS011;49397;47.474;9.416;2022-11-25T14:43:12;4.10;;;2.90;;
11267;SDS011;49397;47.474;9.416;2022-11-25T14:45:42;5.27;;;2.80;;
11267;SDS011;49397;47.474;9.416;2022-11-25T14:48:15;2.77;;;2.27;;
11267;SDS011;49397;47.474;9.416;2022-11-25T14:51:01;1.90;;;1.80;;
11267;SDS011;49397;47.474;9.416;2022-11-25T14:53:35;3.73;;;2.20;;
11267;SDS011;49397;47.474;9.416;2022-11-25T14:56:03;6.53;;;1.90;;
11267;SDS011;49397;47.474;9.416;2022-11-25T14:58:29;2.97;;;2.10;;
11267;SDS011;49397;47.474;9.416;2022-11-25T15:01:03;4.10;;;2.20;;
11267;SDS011;49397;47.474;9.416;2022-11-25T15:03:31;4.47;;;1.87;;
11267;SDS011;49397;47.474;9.416;2022-11-25T15:06:02;5.73;;;2.00;;
11267;SDS011;49397;47.474;9.416;2022-11-25T15:08:36;2.60;;;2.30;;
11267;SDS011;49397;47.474;9.416;2022-11-25T15:11:20;3.13;;;2.30;;
11267;SDS011;49397;47.474;9.416;2022-11-25T15:13:58;2.03;;;1.93;;
11267;SDS011;49397;47.474;9.416;2022-11-25T15:16:39;6.77;;;2.60;;
11267;SDS011;49397;47.474;9.416;2022-11-25T15:19:17;2.13;;;2.03;;
11267;SDS011;49397;47.474;9.416;2022-11-25T15:21:44;3.60;;;2.40;;
11267;SDS011;49397;47.474;9.416;2022-11-25T15:24:19;1.97;;;1.87;;
11267;SDS011;49397;47.474;9.416;2022-11-25T15:26:55;1.93;;;1.70;;
11267;SDS011;49397;47.474;9.416;2022-11-25T15:29:26;3.83;;;2.60;;
11267;SDS011;49397;47.474;9.416;2022-11-25T15:31:53;2.07;;;1.93;;
11267;SDS011;49397;47.474;9.416;2022-11-25T15:34:21;3.43;;;1.83;;
11267;SDS011;49397;47.474;9.416;2022-11-25T15:36:48;2.50;;;2.00;;
11267;SDS011;49397;47.474;9.416;2022-11-25T15:41:44;2.50;;;2.17;;
11267;SDS011;49397;47.474;9.416;2022-11-25T15:44:23;3.67;;;2.10;;
11267;SDS011;49397;47.474;9.416;2022-11-25T15:46:52;2.60;;;1.93;;
11267;SDS011;49397;47.474;9.416;2022-11-25T15:49:24;4.97;;;2.27;;
11267;SDS011;49397;47.474;9.416;2022-11-25T15:52:02;3.07;;;2.30;;
11267;SDS011;49397;47.474;9.416;2022-11-25T15:54:39;3.83;;;2.20;;
11267;SDS011;49397;47.474;9.416;2022-11-25T15:57:18;6.40;;;2.87;;
11267;SDS011;49397;47.474;9.416;2022-11-25T15:59:49;8.37;;;2.30;;
11267;SDS011;49397;47.474;9.416;2022-11-25T16:18:22;3.03;;;2.83;;
11267;SDS011;49397;47.474;9.416;2022-11-25T16:20:55;5.63;;;2.67;;
11267;SDS011;49397;47.474;9.416;2022-11-25T16:23:24;5.13;;;2.20;;
11267;SDS011;49397;47.474;9.416;2022-11-25T16:28:25;2.63;;;2.43;;
11267;SDS011;49397;47.474;9.416;2022-11-25T16:30:51;3.10;;;2.70;;
11267;SDS011;49397;47.474;9.416;2022-11-25T16:33:18;6.10;;;2.63;;
11267;SDS011;49397;47.474;9.416;2022-11-25T16:35:44;3.20;;;2.90;;
11267;SDS011;49397;47.474;9.416;2022-11-25T16:38:10;3.70;;;2.60;;
11267;SDS011;49397;47.474;9.416;2022-11-25T16:40:36;4.90;;;2.67;;
11267;SDS011;49397;47.474;9.416;2022-11-25T16:43:03;6.40;;;2.67;;
11267;SDS011;49397;47.474;9.416;2022-11-25T16:45:38;3.87;;;2.70;;
11267;SDS011;49397;47.474;9.416;2022-11-25T16:48:13;3.47;;;2.93;;
11267;SDS011;49397;47.474;9.416;2022-11-25T16:50:41;3.40;;;2.70;;
11267;SDS011;49397;47.474;9.416;2022-11-25T16:53:06;3.33;;;3.00;;
11267;SDS011;49397;47.474;9.416;2022-11-25T16:55:32;5.27;;;3.00;;
11267;SDS011;49397;47.474;9.416;2022-11-25T16:57:57;7.47;;;3.40;;
11267;SDS011;49397;47.474;9.416;2022-11-25T17:00:23;2.67;;;2.43;;
11267;SDS011;49397;47.474;9.416;2022-11-25T17:02:48;3.57;;;2.70;;
11267;SDS011;49397;47.474;9.416;2022-11-25T17:05:18;4.73;;;3.10;;
11267;SDS011;49397;47.474;9.416;2022-11-25T17:07:45;4.97;;;2.77;;
11267;SDS011;49397;47.474;9.416;2022-11-25T17:10:11;4.50;;;3.47;;
11267;SDS011;49397;47.474;9.416;2022-11-25T17:12:38;3.07;;;2.73;;
11267;SDS011;49397;47.474;9.416;2022-11-25T17:15:06;3.97;;;2.80;;
11267;SDS011;49397;47.474;9.416;2022-11-25T17:17:38;5.93;;;3.20;;
11267;SDS011;49397;47.474;9.416;2022-11-25T17:20:05;7.00;;;3.77;;
11267;SDS011;49397;47.474;9.416;2022-11-25T17:22:38;4.37;;;3.20;;
11267;SDS011;49397;47.474;9.416;2022-11-25T17:25:03;4.97;;;3.33;;
11267;SDS011;49397;47.474;9.416;2022-11-25T17:27:30;4.43;;;3.37;;
11267;SDS011;49397;47.474;9.416;2022-11-25T17:29:57;8.63;;;2.93;;
11267;SDS011;49397;47.474;9.416;2022-11-25T17:32:25;3.53;;;3.23;;
11267;SDS011;49397;47.474;9.416;2022-11-25T17:34:52;3.80;;;3.40;;
11267;SDS011;49397;47.474;9.416;2022-11-25T17:37:18;4.87;;;3.37;;